Time;durP1;ratioP1;P1;durP2;ratioP2;P2;SDS_P1;SDS_P2;PMS_P1;PMS_P2;Temp;Humidity;BMP_temperature;BMP_pressure;BME280_temperature;BME280_humidity;BME280_pressure;Samples;Min_cycle;Max_cycle;Signal;HPM_P1;HPM_P2
2022/06/15 00:01:17;;;;;;;5.23;3.83;;;25.80;42.30;;;;;;5029726;28;20539;-45
2022/06/15 00:03:43;;;;;;;4.50;4.00;;;25.70;42.60;;;;;;5023764;28;20193;-48
2022/06/15 00:06:22;;;;;;;4.53;3.83;;;25.70;42.80;;;;;;5023864;28;20825;-44
2022/06/15 00:08:54;;;;;;;4.40;4.00;;;25.60;42.80;;;;;;5024518;28;20444;-45
2022/06/15 00:11:41;;;;;;;4.60;4.20;;;25.70;42.90;;;;;;5025063;28;20966;-46
2022/06/15 00:14:19;;;;;;;4.10;3.70;;;25.70;42.80;;;;;;5030790;28;20455;-45
2022/06/15 00:16:45;;;;;;;4.80;4.27;;;25.70;42.70;;;;;;5028828;28;20443;-46
2022/06/15 00:19:12;;;;;;;6.13;3.97;;;25.60;42.70;;;;;;5022401;28;21199;-46
2022/06/15 00:21:38;;;;;;;4.20;3.73;;;25.60;42.80;;;;;;5026404;28;20205;-47
2022/06/15 00:24:05;;;;;;;4.00;3.70;;;25.70;42.80;;;;;;5026717;28;20447;-48
2022/06/15 00:26:30;;;;;;;4.30;3.43;;;25.70;42.70;;;;;;5024568;28;20589;-48
2022/06/15 00:28:56;;;;;;;7.23;4.30;;;25.70;42.50;;;;;;5026654;28;20527;-48
2022/06/15 00:31:22;;;;;;;4.90;4.00;;;25.70;42.50;;;;;;5024898;28;20299;-46
2022/06/15 00:33:48;;;;;;;4.30;3.90;;;25.60;42.60;;;;;;5029052;28;20629;-45
2022/06/15 00:36:19;;;;;;;7.00;4.13;;;25.60;42.70;;;;;;5027755;28;20739;-47
2022/06/15 00:38:51;;;;;;;4.43;4.03;;;25.60;42.70;;;;;;5031165;28;20193;-46
2022/06/15 00:41:20;;;;;;;4.50;3.80;;;25.60;42.70;;;;;;5023126;28;20508;-45
2022/06/15 00:43:54;;;;;;;4.60;4.20;;;25.60;42.90;;;;;;5030761;28;20436;-45
2022/06/15 00:46:31;;;;;;;7.90;4.10;;;25.60;42.80;;;;;;5021154;28;20484;-45
2022/06/15 00:49:03;;;;;;;4.70;3.90;;;25.60;43.00;;;;;;5027091;28;20550;-46
2022/06/15 00:51:29;;;;;;;4.93;3.93;;;25.50;43.10;;;;;;5022882;28;20894;-47
2022/06/15 00:53:57;;;;;;;4.43;4.03;;;25.50;43.40;;;;;;5019564;28;20452;-45
2022/06/15 00:56:24;;;;;;;4.10;3.80;;;25.30;43.40;;;;;;5024624;28;20472;-48
2022/06/15 00:58:53;;;;;;;4.17;3.80;;;25.20;43.90;;;;;;5025374;28;20440;-45
2022/06/15 01:01:19;;;;;;;5.53;3.83;;;25.10;43.90;;;;;;5025314;28;20447;-49
2022/06/15 01:03:49;;;;;;;6.17;4.10;;;25.20;44.50;;;;;;5006938;28;20966;-47
2022/06/15 01:06:27;;;;;;;4.30;3.90;;;25.20;43.90;;;;;;5025699;28;20951;-48
2022/06/15 01:09:06;;;;;;;4.77;4.37;;;25.20;43.90;;;;;;5026208;28;20443;-46
2022/06/15 01:11:52;;;;;;;4.23;3.93;;;25.20;43.90;;;;;;5026862;28;20538;-45
2022/06/15 01:14:26;;;;;;;5.43;4.10;;;25.20;43.80;;;;;;5018328;28;20452;-45
2022/06/15 01:17:16;;;;;;;5.90;3.50;;;25.20;43.90;;;;;;5027359;28;20444;-46
2022/06/15 01:20:13;;;;;;;7.30;4.03;;;25.20;44.00;;;;;;5027466;28;20859;-49
2022/06/15 01:22:56;;;;;;;4.37;3.97;;;25.10;44.10;;;;;;5025970;28;20846;-48
2022/06/15 01:25:37;;;;;;;6.90;4.13;;;25.10;44.20;;;;;;5012760;28;20453;-49
2022/06/15 01:28:21;;;;;;;4.70;3.90;;;25.20;44.20;;;;;;5026634;28;20505;-49
2022/06/15 01:31:04;;;;;;;5.17;3.50;;;25.20;44.10;;;;;;5025934;28;20546;-49
2022/06/15 01:33:49;;;;;;;5.37;4.53;;;25.10;43.80;;;;;;5023713;28;20495;-48
2022/06/15 01:36:26;;;;;;;6.13;4.20;;;25.00;44.30;;;;;;5019049;28;20483;-48
2022/06/15 01:39:02;;;;;;;5.17;4.20;;;25.00;44.00;;;;;;5002352;28;20928;-48
2022/06/15 01:41:30;;;;;;;4.13;3.73;;;25.00;44.00;;;;;;5023835;28;20821;-45
2022/06/15 01:43:59;;;;;;;4.60;4.20;;;24.90;44.10;;;;;;5026763;28;20448;-44
2022/06/15 01:46:25;;;;;;;4.23;3.93;;;24.80;44.10;;;;;;5024846;28;20452;-45
2022/06/15 01:48:53;;;;;;;3.60;3.30;;;24.70;44.60;;;;;;5025868;28;20939;-45
2022/06/15 01:51:23;;;;;;;4.40;4.00;;;24.70;44.50;;;;;;5025469;28;20487;-44
2022/06/15 01:54:27;;;;;;;4.60;4.20;;;24.60;44.40;;;;;;5025688;28;20804;-44
2022/06/15 01:56:57;;;;;;;4.60;4.20;;;24.70;44.40;;;;;;5027739;28;20520;-44
2022/06/15 01:59:30;;;;;;;4.30;3.90;;;24.70;44.40;;;;;;5026495;28;20472;-45
2022/06/15 02:01:59;;;;;;;4.37;3.90;;;24.70;44.20;;;;;;5023376;28;20487;-49
2022/06/15 02:04:54;;;;;;;5.17;3.90;;;24.70;44.20;;;;;;5028543;28;20452;-45
2022/06/15 02:07:40;;;;;;;4.73;4.07;;;24.70;43.90;;;;;;5024108;28;20951;-45
2022/06/15 02:10:16;;;;;;;5.30;3.60;;;24.70;44.10;;;;;;5026437;28;20440;-45
2022/06/15 02:13:10;;;;;;;4.40;4.00;;;24.80;43.70;;;;;;5025406;28;20484;-46
2022/06/15 02:15:40;;;;;;;4.60;4.13;;;24.70;44.00;;;;;;5018081;28;20459;-45
2022/06/15 02:18:10;;;;;;;4.77;4.20;;;24.70;44.40;;;;;;5022478;28;20447;-47
2022/06/15 02:20:41;;;;;;;5.30;4.40;;;24.70;44.30;;;;;;5009501;28;20449;-45
2022/06/15 02:23:11;;;;;;;4.13;3.73;;;24.70;44.10;;;;;;5026754;28;20440;-47
2022/06/15 02:25:41;;;;;;;4.67;3.83;;;24.70;44.10;;;;;;5024135;28;20440;-48
2022/06/15 02:28:07;;;;;;;4.30;3.90;;;24.70;44.10;;;;;;5025612;28;20436;-47
2022/06/15 02:30:33;;;;;;;5.00;4.23;;;24.70;44.20;;;;;;5021413;28;20432;-45
2022/06/15 02:33:32;;;;;;;4.47;3.97;;;24.70;44.20;;;;;;5025817;28;20497;-48
2022/06/15 02:36:00;;;;;;;4.90;4.40;;;24.60;44.40;;;;;;5015250;28;20474;-45
2022/06/15 02:38:28;;;;;;;4.63;4.23;;;24.60;44.40;;;;;;5024204;28;20463;-45
2022/06/15 02:40:54;;;;;;;4.20;3.90;;;24.60;44.40;;;;;;5024362;28;20974;-46
2022/06/15 02:43:24;;;;;;;5.27;4.10;;;24.60;44.50;;;;;;5023455;28;20917;-48
2022/06/15 02:45:51;;;;;;;4.77;4.37;;;24.50;44.50;;;;;;5023975;28;20812;-48
2022/06/15 02:48:17;;;;;;;4.83;3.90;;;24.60;44.40;;;;;;5017546;28;20538;-44
2022/06/15 02:50:48;;;;;;;4.20;3.90;;;24.60;44.50;;;;;;5023765;28;20939;-44
2022/06/15 02:53:19;;;;;;;4.77;4.23;;;24.50;44.50;;;;;;5027595;28;20872;-45
2022/06/15 02:55:48;;;;;;;4.43;3.80;;;24.60;44.50;;;;;;5022693;28;20483;-48
2022/06/15 02:58:20;;;;;;;4.37;3.73;;;24.60;44.30;;;;;;5024268;28;20468;-48
2022/06/15 03:00:46;;;;;;;4.10;3.67;;;24.70;44.30;;;;;;5025366;28;20885;-48
2022/06/15 03:03:12;;;;;;;4.17;3.77;;;24.60;44.30;;;;;;5007367;28;20571;-46
2022/06/15 03:05:37;;;;;;;4.40;4.00;;;24.60;44.30;;;;;;5028637;28;20201;-44
2022/06/15 03:08:03;;;;;;;4.87;4.13;;;24.50;44.60;;;;;;5024146;28;20641;-47
2022/06/15 03:10:29;;;;;;;3.50;3.20;;;24.50;44.70;;;;;;5022888;28;20200;-44
2022/06/15 03:12:55;;;;;;;4.87;4.17;;;24.40;44.60;;;;;;5027971;28;20487;-45
2022/06/15 03:15:20;;;;;;;5.80;4.20;;;24.50;44.10;;;;;;5022152;28;20201;-44
2022/06/15 03:17:46;;;;;;;4.93;4.43;;;24.60;43.90;;;;;;5022759;28;20203;-48
2022/06/15 03:20:12;;;;;;;5.73;4.30;;;24.60;43.80;;;;;;5026537;28;20194;-48
2022/06/15 03:22:38;;;;;;;7.33;4.70;;;24.60;43.90;;;;;;5023061;28;20555;-48
2022/06/15 03:25:04;;;;;;;5.60;5.10;;;24.50;43.90;;;;;;5026143;28;20446;-48
2022/06/15 03:27:30;;;;;;;6.57;4.70;;;24.40;44.00;;;;;;5029773;28;20205;-45
2022/06/15 03:29:55;;;;;;;7.30;4.60;;;24.30;44.10;;;;;;5028342;28;20931;-45
2022/06/15 03:32:21;;;;;;;4.73;4.03;;;24.20;44.40;;;;;;5028840;28;20236;-45
2022/06/15 03:34:47;;;;;;;9.47;5.83;;;24.20;44.50;;;;;;5028366;28;20255;-48
2022/06/15 03:37:12;;;;;;;5.50;5.00;;;24.00;43.80;;;;;;5022603;28;20197;-48
2022/06/15 03:39:38;;;;;;;5.43;4.73;;;23.70;44.40;;;;;;5021806;28;20189;-47
2022/06/15 03:42:15;;;;;;;5.70;5.20;;;23.20;45.40;;;;;;5027247;28;20659;-45
2022/06/15 03:44:41;;;;;;;6.20;5.60;;;22.70;46.30;;;;;;5030035;28;20201;-47
2022/06/15 03:47:10;;;;;;;6.67;5.10;;;22.10;47.50;;;;;;5024129;28;20947;-45
2022/06/15 03:49:36;;;;;;;5.90;4.87;;;21.80;48.60;;;;;;5021953;28;20664;-47
2022/06/15 03:52:02;;;;;;;7.30;4.97;;;21.50;49.50;;;;;;5011281;28;20494;-48
2022/06/15 03:54:27;;;;;;;5.33;4.83;;;21.20;50.30;;;;;;5023358;28;20275;-48
2022/06/15 03:56:53;;;;;;;5.50;4.53;;;21.10;50.50;;;;;;5029147;28;20197;-48
2022/06/15 03:59:19;;;;;;;6.00;5.00;;;21.00;50.70;;;;;;5028557;28;20209;-44
2022/06/15 04:01:44;;;;;;;5.53;5.03;;;21.00;50.80;;;;;;5025898;28;20686;-44
2022/06/15 04:04:10;;;;;;;6.27;5.67;;;20.80;51.10;;;;;;5027002;28;20748;-48
2022/06/15 04:06:36;;;;;;;5.23;4.70;;;20.50;51.60;;;;;;5029783;28;20303;-49
2022/06/15 04:09:02;;;;;;;6.30;4.90;;;20.30;52.20;;;;;;5023179;28;20201;-48
2022/06/15 04:14:12;;;;;;;5.50;5.00;;;19.70;53.70;;;;;;5023935;28;20466;-49
2022/06/15 04:16:37;;;;;;;5.30;4.80;;;19.20;55.30;;;;;;5030230;28;20470;-46
2022/06/15 04:19:06;;;;;;;7.23;5.03;;;19.30;55.40;;;;;;5029280;28;20293;-45
2022/06/15 04:21:33;;;;;;;4.80;4.40;;;19.50;55.00;;;;;;5023484;28;20208;-44
2022/06/15 04:23:58;;;;;;;5.43;4.93;;;19.70;54.30;;;;;;5027289;28;20440;-44
2022/06/15 04:26:24;;;;;;;5.30;4.40;;;19.80;54.00;;;;;;5030550;28;20444;-46
2022/06/15 04:28:50;;;;;;;5.67;5.03;;;20.00;53.70;;;;;;5027448;28;20268;-48
2022/06/15 04:31:15;;;;;;;4.80;4.40;;;20.00;53.60;;;;;;5028106;28;20574;-46
2022/06/15 04:33:41;;;;;;;5.27;4.80;;;20.10;53.50;;;;;;5020942;28;20208;-45
2022/06/15 04:36:07;;;;;;;5.57;4.77;;;20.20;53.30;;;;;;5025229;28;20706;-45
2022/06/15 04:38:33;;;;;;;5.10;4.60;;;20.30;53.00;;;;;;5028568;28;20224;-46
2022/06/15 04:40:58;;;;;;;6.57;5.67;;;20.40;53.00;;;;;;5029817;28;20498;-45
2022/06/15 04:43:24;;;;;;;4.60;4.20;;;20.40;52.80;;;;;;5025574;28;20664;-46
2022/06/15 04:45:50;;;;;;;6.70;5.03;;;20.30;52.70;;;;;;5028183;28;20698;-44
2022/06/15 04:48:16;;;;;;;8.50;5.10;;;20.40;52.70;;;;;;5016173;28;20276;-45
2022/06/15 04:50:42;;;;;;;6.30;4.77;;;20.40;52.60;;;;;;5030595;28;20451;-44
2022/06/15 04:53:08;;;;;;;6.83;4.70;;;20.60;52.40;;;;;;5026264;28;20339;-44
2022/06/15 04:55:34;;;;;;;5.93;4.40;;;20.50;52.80;;;;;;5021397;28;21014;-44
2022/06/15 04:58:00;;;;;;;7.03;4.97;;;20.60;52.60;;;;;;5027203;28;20216;-44
2022/06/15 05:00:32;;;;;;;5.17;4.77;;;20.50;52.20;;;;;;5023216;28;20268;-46
2022/06/15 05:02:57;;;;;;;6.20;5.67;;;20.40;52.60;;;;;;5029228;28;20271;-44
2022/06/15 05:05:23;;;;;;;4.63;4.23;;;20.60;52.40;;;;;;5021144;28;20447;-45
2022/06/15 05:07:49;;;;;;;5.80;5.30;;;20.80;52.20;;;;;;5027109;28;20230;-45
2022/06/15 05:10:21;;;;;;;5.03;4.63;;;21.00;51.70;;;;;;5026204;28;20671;-44
2022/06/15 05:12:47;;;;;;;5.30;4.53;;;21.10;51.40;;;;;;5028587;28;20367;-44
2022/06/15 05:15:14;;;;;;;5.73;4.00;;;21.30;51.50;;;;;;5026156;28;20519;-44
2022/06/15 05:17:41;;;;;;;4.37;4.07;;;21.60;51.50;;;;;;5025649;28;20193;-44
2022/06/15 05:20:09;;;;;;;4.30;3.90;;;21.90;50.90;;;;;;5025469;28;20471;-44
2022/06/15 05:22:36;;;;;;;5.03;4.57;;;22.20;50.50;;;;;;5026936;28;20483;-44
2022/06/15 05:25:02;;;;;;;8.20;4.70;;;22.40;49.70;;;;;;5023492;28;20459;-45
2022/06/15 05:27:28;;;;;;;3.80;3.50;;;22.70;49.10;;;;;;5029763;28;20459;-44
2022/06/15 05:29:54;;;;;;;4.63;3.90;;;22.90;49.30;;;;;;5023085;28;20436;-45
2022/06/15 05:32:19;;;;;;;8.27;4.17;;;23.10;48.30;;;;;;5015331;28;20238;-47
2022/06/15 05:34:45;;;;;;;5.10;4.17;;;23.30;47.80;;;;;;5013720;28;21024;-46
2022/06/15 05:37:10;;;;;;;4.30;3.90;;;23.50;47.60;;;;;;5026862;28;20684;-46
2022/06/15 05:39:36;;;;;;;7.33;5.10;;;23.70;47.30;;;;;;5026947;28;20232;-44
2022/06/15 05:42:03;;;;;;;6.17;5.10;;;23.80;47.10;;;;;;5025600;28;20200;-45
2022/06/15 05:44:48;;;;;;;5.70;5.20;;;23.90;46.90;;;;;;5026536;28;20197;-44
2022/06/15 05:47:15;;;;;;;5.83;5.30;;;24.00;46.80;;;;;;5024436;28;20482;-45
2022/06/15 05:49:40;;;;;;;4.93;4.53;;;24.00;46.30;;;;;;5028977;28;20444;-45
2022/06/15 05:52:06;;;;;;;6.00;5.40;;;23.80;47.00;;;;;;5026763;28;21069;-44
2022/06/15 05:54:32;;;;;;;5.57;4.90;;;23.90;47.10;;;;;;5027094;28;20228;-44
2022/06/15 05:56:58;;;;;;;5.63;5.13;;;24.10;47.50;;;;;;5021135;28;20442;-44
2022/06/15 05:59:23;;;;;;;8.80;5.03;;;24.10;46.90;;;;;;5021569;28;20256;-44
2022/06/15 06:01:49;;;;;;;6.30;5.43;;;24.20;46.90;;;;;;5022628;28;20197;-44
2022/06/15 06:04:16;;;;;;;9.10;6.80;;;24.30;47.00;;;;;;5025256;28;20193;-45
2022/06/15 06:06:42;;;;;;;13.30;5.40;;;24.00;47.80;;;;;;5026943;28;20254;-44
2022/06/15 06:09:09;;;;;;;9.10;5.93;;;23.60;48.50;;;;;;5028179;28;20451;-43
2022/06/15 06:11:36;;;;;;;9.97;5.87;;;23.70;48.60;;;;;;5027795;28;20484;-44
2022/06/15 06:14:02;;;;;;;6.10;5.10;;;23.70;48.50;;;;;;5029109;28;20440;-43
2022/06/15 06:16:28;;;;;;;5.43;4.93;;;23.50;48.90;;;;;;5023644;28;20436;-45
2022/06/15 06:18:53;;;;;;;6.43;5.00;;;23.70;48.70;;;;;;5025014;28;20228;-45
2022/06/15 06:21:19;;;;;;;6.10;4.87;;;23.70;48.50;;;;;;5025295;28;20201;-43
2022/06/15 06:23:46;;;;;;;7.80;5.13;;;23.30;49.10;;;;;;5022744;28;20189;-47
2022/06/15 06:26:27;;;;;;;4.93;4.30;;;23.10;49.30;;;;;;5026114;28;20513;-44
2022/06/15 06:28:53;;;;;;;5.80;4.80;;;22.80;49.20;;;;;;5025382;28;20436;-45
2022/06/15 06:31:20;;;;;;;7.73;5.60;;;23.00;49.50;;;;;;5028692;28;20583;-44
2022/06/15 06:33:47;;;;;;;5.60;3.80;;;22.80;49.10;;;;;;5027932;28;20602;-44
2022/06/15 06:36:34;;;;;;;11.77;4.50;;;22.60;49.70;;;;;;5019995;28;21318;-45
2022/06/15 06:39:04;;;;;;;5.37;4.33;;;23.00;49.40;;;;;;5020610;28;20936;-44
2022/06/15 06:41:31;;;;;;;6.47;4.70;;;23.60;48.80;;;;;;5014085;28;20437;-44
2022/06/15 06:43:59;;;;;;;5.40;4.50;;;23.90;47.80;;;;;;5026627;28;20447;-44
2022/06/15 06:46:25;;;;;;;4.90;4.00;;;23.90;47.10;;;;;;5025946;28;20454;-44
2022/06/15 06:48:51;;;;;;;5.20;4.37;;;24.10;46.50;;;;;;5026727;28;20448;-44
2022/06/15 06:51:17;;;;;;;6.60;4.43;;;24.50;46.30;;;;;;5030827;28;20979;-44
2022/06/15 06:53:43;;;;;;;6.57;4.17;;;24.50;45.60;;;;;;5030932;28;20456;-44
2022/06/15 06:56:10;;;;;;;6.73;4.10;;;24.50;45.10;;;;;;5029946;28;20632;-44
2022/06/15 06:58:36;;;;;;;7.67;4.07;;;24.60;45.30;;;;;;5032659;28;20204;-45
2022/06/15 07:01:02;;;;;;;7.07;4.60;;;24.80;45.10;;;;;;5024447;28;20439;-47
2022/06/15 07:03:28;;;;;;;4.43;3.47;;;24.80;44.80;;;;;;5030150;28;20657;-44
2022/06/15 07:06:08;;;;;;;6.33;3.80;;;25.00;44.80;;;;;;5031684;28;20456;-45
2022/06/15 07:08:34;;;;;;;4.07;3.30;;;25.30;44.60;;;;;;5030912;28;20534;-44
2022/06/15 07:11:00;;;;;;;5.90;4.50;;;25.40;44.10;;;;;;5024620;28;20526;-44
2022/06/15 07:13:26;;;;;;;5.87;4.27;;;25.50;43.90;;;;;;5030063;28;20292;-44
2022/06/15 07:15:51;;;;;;;4.07;3.70;;;25.70;43.60;;;;;;5029652;28;20201;-44
2022/06/15 07:18:17;;;;;;;4.10;3.70;;;25.80;43.60;;;;;;5030806;28;20448;-45
2022/06/15 07:20:43;;;;;;;8.37;4.17;;;26.10;43.40;;;;;;5027965;28;20272;-44
2022/06/15 07:23:09;;;;;;;6.50;3.47;;;26.30;42.90;;;;;;5026736;28;20278;-44
2022/06/15 07:25:35;;;;;;;4.60;4.20;;;26.50;42.40;;;;;;5029067;28;20243;-44
2022/06/15 07:28:02;;;;;;;5.40;3.50;;;26.70;42.10;;;;;;5025907;28;20444;-44
2022/06/15 07:30:28;;;;;;;3.83;3.57;;;26.80;41.50;;;;;;5028390;28;20280;-45
2022/06/15 07:32:54;;;;;;;5.73;4.20;;;27.00;41.60;;;;;;5021765;28;20479;-46
2022/06/15 07:35:28;;;;;;;4.13;3.73;;;27.10;40.90;;;;;;5025512;28;20452;-45
2022/06/15 07:37:54;;;;;;;10.67;3.73;;;27.20;40.70;;;;;;5021133;28;20543;-44
2022/06/15 07:40:21;;;;;;;4.90;3.30;;;26.90;40.50;;;;;;5021503;28;20952;-44
2022/06/15 07:42:48;;;;;;;4.17;3.80;;;27.10;40.70;;;;;;5020611;28;20455;-44
2022/06/15 07:45:15;;;;;;;3.60;3.10;;;27.40;40.40;;;;;;5024124;28;20817;-44
2022/06/15 07:50:25;;;;;;;4.43;3.67;;;27.60;40.00;;;;;;5024225;28;20455;-44
2022/06/15 07:52:52;;;;;;;4.50;4.10;;;27.70;39.70;;;;;;5028431;28;20966;-45
2022/06/15 07:55:25;;;;;;;3.97;3.67;;;27.80;40.30;;;;;;5029967;28;20593;-45
2022/06/15 07:57:52;;;;;;;4.90;4.00;;;28.00;40.10;;;;;;5028825;28;20967;-46
2022/06/15 08:00:19;;;;;;;4.93;4.50;;;28.20;39.10;;;;;;5030070;28;20928;-45
2022/06/15 08:02:44;;;;;;;4.57;4.13;;;28.30;39.00;;;;;;5030010;28;20440;-45
2022/06/15 08:05:10;;;;;;;5.37;3.97;;;28.50;38.90;;;;;;5030606;28;21025;-44
2022/06/15 08:07:37;;;;;;;4.30;4.00;;;28.70;39.00;;;;;;5029859;28;20224;-45
2022/06/15 08:10:04;;;;;;;4.20;3.60;;;28.70;38.80;;;;;;5030206;28;20196;-44
2022/06/15 08:12:30;;;;;;;4.10;3.57;;;28.90;38.30;;;;;;5029836;28;20527;-45
2022/06/15 08:14:58;;;;;;;3.43;3.13;;;29.00;37.00;;;;;;5030345;28;20479;-45
2022/06/15 08:17:46;;;;;;;4.03;3.53;;;29.10;35.80;;;;;;5022831;28;20205;-46
2022/06/15 08:20:26;;;;;;;3.77;3.47;;;29.40;34.70;;;;;;5019780;28;20517;-44
2022/06/15 08:22:55;;;;;;;3.10;2.80;;;29.50;34.10;;;;;;5029853;28;20445;-45
2022/06/15 08:25:25;;;;;;;3.20;2.90;;;29.60;33.60;;;;;;5031298;28;20447;-45
2022/06/15 08:27:51;;;;;;;5.87;3.60;;;29.70;34.70;;;;;;5026963;28;20468;-46
2022/06/15 08:30:18;;;;;;;3.67;3.37;;;29.80;34.70;;;;;;5019565;28;20455;-44
2022/06/15 08:32:45;;;;;;;3.83;3.50;;;29.90;34.20;;;;;;5028589;28;20576;-44
2022/06/15 08:35:12;;;;;;;4.90;3.77;;;30.00;34.30;;;;;;5030088;28;20874;-45
2022/06/15 08:37:37;;;;;;;5.40;3.40;;;30.10;34.60;;;;;;5028531;28;20436;-44
2022/06/15 08:40:05;;;;;;;3.40;3.10;;;30.20;34.80;;;;;;5022395;28;20923;-45
2022/06/15 08:42:39;;;;;;;5.53;3.40;;;30.30;34.70;;;;;;5004991;28;20663;-45
2022/06/15 08:45:11;;;;;;;3.70;3.40;;;30.50;35.40;;;;;;5013332;28;20487;-45
2022/06/15 08:48:15;;;;;;;3.60;3.37;;;30.60;34.30;;;;;;5023032;28;20493;-45
2022/06/15 08:50:51;;;;;;;4.87;3.70;;;30.70;35.00;;;;;;4997981;28;20463;-45
2022/06/15 08:53:38;;;;;;;3.93;3.53;;;30.80;34.20;;;;;;5028978;28;20455;-45
2022/06/15 08:56:17;;;;;;;5.03;3.80;;;31.00;33.90;;;;;;5026505;28;20479;-45
2022/06/15 08:59:16;;;;;;;8.47;4.10;;;31.00;34.80;;;;;;5015859;28;20451;-45
2022/06/15 09:01:57;;;;;;;4.17;3.87;;;31.20;34.50;;;;;;5019701;28;20457;-46
2022/06/15 09:04:39;;;;;;;4.00;3.63;;;31.30;34.90;;;;;;5020292;28;22278;-46
2022/06/15 09:07:42;;;;;;;9.20;4.20;;;31.50;34.50;;;;;;5013222;28;20452;-49
2022/06/15 09:10:16;;;;;;;4.77;3.63;;;31.70;34.00;;;;;;5021973;28;20487;-45
2022/06/15 09:13:22;;;;;;;5.40;3.70;;;31.90;32.90;;;;;;5024678;28;20518;-44
2022/06/15 09:16:25;;;;;;;4.67;3.97;;;31.90;32.60;;;;;;5014073;28;20574;-45
2022/06/15 09:19:06;;;;;;;4.43;4.03;;;32.10;33.10;;;;;;5017445;28;20502;-46
2022/06/15 09:21:37;;;;;;;5.03;3.50;;;32.20;32.30;;;;;;5022623;28;20455;-47
2022/06/15 09:24:12;;;;;;;5.13;3.80;;;32.30;32.70;;;;;;5018069;28;20447;-48
2022/06/15 09:26:46;;;;;;;3.87;3.67;;;32.50;32.80;;;;;;5025068;28;20466;-44
2022/06/15 09:29:27;;;;;;;5.30;3.77;;;32.70;32.60;;;;;;5027057;28;20440;-45
2022/06/15 09:32:21;;;;;;;3.70;3.40;;;32.80;31.80;;;;;;5021989;28;20491;-46
2022/06/15 09:35:04;;;;;;;4.10;3.50;;;32.80;32.30;;;;;;5026535;28;20452;-44
2022/06/15 09:37:35;;;;;;;3.30;3.10;;;32.90;32.50;;;;;;5018760;28;20440;-45
2022/06/15 09:40:04;;;;;;;3.73;3.37;;;32.90;30.80;;;;;;5023473;28;20452;-44
2022/06/15 09:43:07;;;;;;;4.70;3.87;;;32.90;30.50;;;;;;5013458;28;20444;-45
2022/06/15 09:45:46;;;;;;;6.47;3.30;;;32.50;30.40;;;;;;5017426;28;20475;-46
2022/06/15 09:48:50;;;;;;;5.63;3.20;;;32.40;31.30;;;;;;5020438;28;20455;-45
2022/06/15 09:51:43;;;;;;;3.87;3.60;;;32.50;30.10;;;;;;5000187;28;20530;-45
2022/06/15 09:54:50;;;;;;;6.70;3.63;;;32.80;30.00;;;;;;5023661;28;21136;-46
2022/06/15 09:57:18;;;;;;;5.47;3.57;;;33.20;30.10;;;;;;5022087;28;20470;-45
2022/06/15 09:59:43;;;;;;;4.60;3.20;;;33.40;30.20;;;;;;5026019;28;20443;-47
2022/06/15 10:02:29;;;;;;;4.03;3.63;;;33.60;30.00;;;;;;5023824;28;20478;-45
2022/06/15 10:04:57;;;;;;;3.53;3.23;;;33.90;29.70;;;;;;5014504;28;20280;-46
2022/06/15 10:07:50;;;;;;;4.47;3.50;;;34.10;30.00;;;;;;5025914;28;20843;-46
2022/06/15 10:10:24;;;;;;;4.40;3.47;;;34.30;28.80;;;;;;5021718;28;20447;-46
2022/06/15 10:12:56;;;;;;;5.20;3.10;;;34.30;28.60;;;;;;5006344;28;20971;-46
2022/06/15 10:15:26;;;;;;;6.10;3.73;;;34.50;28.80;;;;;;5026180;28;20975;-44
2022/06/15 10:17:55;;;;;;;6.40;2.80;;;34.50;28.40;;;;;;5024917;28;20541;-48
2022/06/15 10:20:36;;;;;;;3.60;3.30;;;34.50;27.80;;;;;;5027179;28;20459;-48
2022/06/15 10:23:15;;;;;;;4.60;3.10;;;34.50;27.30;;;;;;5026328;28;21795;-45
2022/06/15 10:25:50;;;;;;;3.20;2.97;;;34.30;26.90;;;;;;5026512;28;20449;-46
2022/06/15 10:28:21;;;;;;;3.23;3.00;;;34.50;26.90;;;;;;5025749;28;20629;-47
2022/06/15 10:31:00;;;;;;;4.17;2.80;;;34.50;27.60;;;;;;5031931;28;20542;-44
2022/06/15 10:33:55;;;;;;;7.40;3.50;;;34.60;27.20;;;;;;5025859;28;20448;-48
2022/06/15 10:36:26;;;;;;;5.20;3.03;;;34.70;26.70;;;;;;5023008;28;20482;-48
2022/06/15 10:39:16;;;;;;;3.60;3.27;;;34.40;25.60;;;;;;5029806;28;20939;-46
2022/06/15 10:41:47;;;;;;;3.30;3.07;;;34.20;26.70;;;;;;5026529;28;20444;-44
2022/06/15 10:44:41;;;;;;;2.93;2.73;;;33.70;27.30;;;;;;5031784;28;20506;-44
2022/06/15 10:47:19;;;;;;;2.87;2.67;;;34.20;27.40;;;;;;5030045;28;20452;-46
2022/06/15 10:50:06;;;;;;;4.40;2.90;;;34.70;26.20;;;;;;5030786;28;20582;-45
2022/06/15 10:52:45;;;;;;;3.07;2.50;;;34.80;26.10;;;;;;5030360;28;20519;-45
2022/06/15 11:04:19;;;;;;;3.97;2.80;;;35.40;26.60;;;;;;5023509;28;20510;-48
2022/06/15 11:06:50;;;;;;;3.90;2.93;;;35.60;26.90;;;;;;5028909;28;20450;-44
2022/06/15 11:09:18;;;;;;;3.50;3.20;;;35.80;26.00;;;;;;5026677;28;20435;-48
2022/06/15 11:11:44;;;;;;;2.83;2.57;;;36.00;26.50;;;;;;5030454;28;20537;-45
2022/06/15 11:14:19;;;;;;;4.97;3.07;;;36.20;27.00;;;;;;5029024;28;20915;-45
2022/06/15 11:19:29;;;;;;;3.60;3.30;;;36.60;25.40;;;;;;5024549;28;20458;-46
2022/06/15 11:22:02;;;;;;;3.80;2.93;;;36.80;25.40;;;;;;5028645;28;20458;-44
2022/06/15 11:24:39;;;;;;;3.60;3.30;;;36.90;24.80;;;;;;5030127;28;20443;-43
2022/06/15 11:27:10;;;;;;;4.00;3.30;;;37.10;24.70;;;;;;5029048;28;20448;-44
2022/06/15 11:29:45;;;;;;;3.43;2.90;;;37.20;25.00;;;;;;5027437;28;21284;-44
2022/06/15 11:32:44;;;;;;;3.47;3.17;;;37.30;24.90;;;;;;5025021;28;20528;-44
2022/06/15 11:35:13;;;;;;;3.20;2.70;;;37.30;24.70;;;;;;5024257;28;20459;-43
2022/06/15 11:37:51;;;;;;;3.83;2.80;;;37.50;24.90;;;;;;5018880;28;20447;-45
2022/06/15 11:40:22;;;;;;;5.53;2.90;;;37.60;24.10;;;;;;5024743;28;20470;-46
2022/06/15 11:42:56;;;;;;;3.10;2.53;;;37.70;24.70;;;;;;5028145;28;20444;-46
2022/06/15 11:45:29;;;;;;;3.03;2.67;;;37.70;24.60;;;;;;5029398;28;20442;-45
2022/06/15 11:48:09;;;;;;;2.60;2.40;;;37.80;23.40;;;;;;5026420;28;20445;-48
2022/06/15 11:50:46;;;;;;;2.80;2.50;;;37.80;23.30;;;;;;5023863;28;21000;-47
2022/06/15 11:53:39;;;;;;;2.90;2.70;;;38.00;23.80;;;;;;5024423;28;20502;-46
2022/06/15 11:56:13;;;;;;;4.60;2.40;;;38.10;24.20;;;;;;4995888;28;20830;-47
2022/06/15 11:59:09;;;;;;;4.83;2.80;;;38.20;23.80;;;;;;5025410;28;20442;-44
2022/06/15 12:02:03;;;;;;;3.13;2.83;;;38.40;23.00;;;;;;5020917;28;20443;-47
2022/06/15 12:04:58;;;;;;;2.40;2.30;;;38.40;22.20;;;;;;5024391;28;20435;-45
2022/06/15 12:07:56;;;;;;;4.13;2.80;;;38.50;22.30;;;;;;4989158;28;20859;-45
2022/06/15 12:10:36;;;;;;;2.90;2.70;;;38.60;23.30;;;;;;5018436;28;20470;-45
2022/06/15 12:13:13;;;;;;;4.53;3.47;;;38.50;22.30;;;;;;5019677;28;22564;-46
2022/06/15 12:15:45;;;;;;;3.53;2.60;;;38.40;22.00;;;;;;5028738;28;20516;-45
2022/06/15 12:18:22;;;;;;;3.43;3.10;;;38.30;22.70;;;;;;5025976;28;21249;-45
2022/06/15 12:21:19;;;;;;;3.50;3.20;;;38.30;23.20;;;;;;5027628;28;20439;-45
2022/06/15 12:23:59;;;;;;;5.20;2.90;;;38.50;23.50;;;;;;5025984;28;21024;-45
2022/06/15 12:26:51;;;;;;;2.93;2.60;;;38.60;23.00;;;;;;5016993;28;20451;-49
2022/06/15 12:29:50;;;;;;;3.53;3.23;;;38.70;23.00;;;;;;5020037;28;20512;-45
2022/06/15 12:32:38;;;;;;;3.00;2.47;;;38.80;22.60;;;;;;5020215;28;20742;-48
2022/06/15 12:35:18;;;;;;;4.17;2.63;;;38.90;22.30;;;;;;5024625;28;20444;-44
2022/06/15 12:38:01;;;;;;;3.00;2.60;;;39.00;21.90;;;;;;5024772;28;20439;-45
2022/06/15 12:40:44;;;;;;;2.60;2.40;;;39.10;21.20;;;;;;5020419;28;20447;-45
2022/06/15 12:43:28;;;;;;;3.10;2.77;;;39.10;20.60;;;;;;5022441;28;21397;-45
2022/06/15 12:46:11;;;;;;;2.90;2.70;;;39.20;21.10;;;;;;5024157;28;20464;-45
2022/06/15 12:48:52;;;;;;;2.67;2.47;;;39.30;22.20;;;;;;5023036;28;20467;-44
2022/06/15 12:51:30;;;;;;;2.90;2.60;;;39.40;22.30;;;;;;5020488;28;20494;-44
2022/06/15 12:54:08;;;;;;;4.10;3.03;;;39.40;21.40;;;;;;5025183;28;20443;-46
2022/06/15 12:56:59;;;;;;;3.30;3.00;;;39.50;21.00;;;;;;5024863;28;20447;-45
2022/06/15 12:59:49;;;;;;;3.07;2.57;;;39.20;21.10;;;;;;5026170;28;20938;-48
2022/06/15 13:02:22;;;;;;;3.23;2.93;;;39.20;21.40;;;;;;5017451;28;20448;-47
2022/06/15 13:05:19;;;;;;;2.90;2.50;;;39.20;21.20;;;;;;5021425;28;20816;-46
2022/06/15 13:08:11;;;;;;;3.10;2.80;;;39.40;21.80;;;;;;5023567;28;20448;-46
2022/06/15 13:10:38;;;;;;;3.53;3.00;;;39.30;20.40;;;;;;5026125;28;20501;-47
2022/06/15 13:13:04;;;;;;;3.97;2.97;;;39.10;21.10;;;;;;5026478;28;20577;-47
2022/06/15 13:15:32;;;;;;;5.23;3.50;;;39.20;21.70;;;;;;5026459;28;20451;-47
2022/06/15 13:18:11;;;;;;;3.70;2.67;;;39.20;21.00;;;;;;5023901;28;20505;-48
2022/06/15 13:20:46;;;;;;;3.93;2.83;;;39.10;21.50;;;;;;5025848;28;20504;-49
2022/06/15 13:23:24;;;;;;;3.57;2.37;;;39.20;21.90;;;;;;5026851;28;20596;-50
2022/06/15 13:25:56;;;;;;;3.00;2.70;;;39.40;21.90;;;;;;5025424;28;20435;-48
2022/06/15 13:28:25;;;;;;;4.00;2.80;;;39.50;21.20;;;;;;5002920;28;20578;-47
2022/06/15 13:31:02;;;;;;;2.50;2.40;;;39.60;20.90;;;;;;5023867;28;20489;-45
2022/06/15 13:33:46;;;;;;;2.83;2.63;;;39.60;21.20;;;;;;5023011;28;20447;-46